sensor_id;sensor_type;location;lat;lon;timestamp;P1;durP1;ratioP1;P2;durP2;ratioP2
3141;SDS011;1581;51.568;6.998;2022-09-12T00:01:03;27.30;;;14.53;;
3141;SDS011;1581;51.568;6.998;2022-09-12T00:03:33;21.77;;;14.00;;
3141;SDS011;1581;51.568;6.998;2022-09-12T00:06:06;23.97;;;15.70;;
3141;SDS011;1581;51.568;6.998;2022-09-12T00:08:36;26.03;;;15.63;;
3141;SDS011;1581;51.568;6.998;2022-09-12T00:11:04;26.07;;;15.80;;
3141;SDS011;1581;51.568;6.998;2022-09-12T00:13:35;24.60;;;14.83;;
3141;SDS011;1581;51.568;6.998;2022-09-12T00:16:03;30.50;;;15.30;;
3141;SDS011;1581;51.568;6.998;2022-09-12T00:18:32;23.27;;;15.17;;
3141;SDS011;1581;51.568;6.998;2022-09-12T00:21:02;24.77;;;15.30;;
3141;SDS011;1581;51.568;6.998;2022-09-12T00:23:30;26.03;;;14.03;;
3141;SDS011;1581;51.568;6.998;2022-09-12T00:25:59;26.87;;;13.97;;
3141;SDS011;1581;51.568;6.998;2022-09-12T00:28:29;24.73;;;14.83;;
3141;SDS011;1581;51.568;6.998;2022-09-12T00:30:59;22.90;;;14.27;;
3141;SDS011;1581;51.568;6.998;2022-09-12T00:33:29;21.47;;;13.73;;
3141;SDS011;1581;51.568;6.998;2022-09-12T00:35:56;27.33;;;13.80;;
3141;SDS011;1581;51.568;6.998;2022-09-12T00:38:26;26.10;;;15.50;;
3141;SDS011;1581;51.568;6.998;2022-09-12T00:40:54;24.73;;;13.90;;
3141;SDS011;1581;51.568;6.998;2022-09-12T00:43:34;21.93;;;14.47;;
3141;SDS011;1581;51.568;6.998;2022-09-12T00:46:09;25.37;;;14.67;;
3141;SDS011;1581;51.568;6.998;2022-09-12T00:48:48;24.27;;;14.43;;
3141;SDS011;1581;51.568;6.998;2022-09-12T00:51:21;23.10;;;14.90;;
3141;SDS011;1581;51.568;6.998;2022-09-12T00:53:53;27.57;;;15.03;;
3141;SDS011;1581;51.568;6.998;2022-09-12T00:56:23;22.67;;;13.87;;
3141;SDS011;1581;51.568;6.998;2022-09-12T00:58:53;28.40;;;15.33;;
3141;SDS011;1581;51.568;6.998;2022-09-12T01:01:26;24.03;;;14.30;;
3141;SDS011;1581;51.568;6.998;2022-09-12T01:03:54;19.30;;;13.93;;
3141;SDS011;1581;51.568;6.998;2022-09-12T01:06:23;23.73;;;14.03;;
3141;SDS011;1581;51.568;6.998;2022-09-12T01:08:55;23.80;;;14.60;;
3141;SDS011;1581;51.568;6.998;2022-09-12T01:11:23;25.80;;;14.37;;
3141;SDS011;1581;51.568;6.998;2022-09-12T01:13:51;23.00;;;13.70;;
3141;SDS011;1581;51.568;6.998;2022-09-12T01:16:19;20.23;;;13.70;;
3141;SDS011;1581;51.568;6.998;2022-09-12T01:18:50;27.47;;;15.63;;
3141;SDS011;1581;51.568;6.998;2022-09-12T01:21:35;25.03;;;15.27;;
3141;SDS011;1581;51.568;6.998;2022-09-12T01:24:18;30.90;;;15.20;;
3141;SDS011;1581;51.568;6.998;2022-09-12T01:30:43;23.00;;;14.20;;
3141;SDS011;1581;51.568;6.998;2022-09-12T01:39:10;26.03;;;12.97;;
3141;SDS011;1581;51.568;6.998;2022-09-12T01:41:48;35.27;;;14.27;;
3141;SDS011;1581;51.568;6.998;2022-09-12T01:44:27;35.27;;;15.20;;
3141;SDS011;1581;51.568;6.998;2022-09-12T01:47:04;23.40;;;14.60;;
3141;SDS011;1581;51.568;6.998;2022-09-12T01:49:37;21.97;;;13.90;;
3141;SDS011;1581;51.568;6.998;2022-09-12T01:52:13;24.50;;;15.17;;
3141;SDS011;1581;51.568;6.998;2022-09-12T01:54:48;25.67;;;14.17;;
3141;SDS011;1581;51.568;6.998;2022-09-12T01:57:24;24.00;;;14.27;;
3141;SDS011;1581;51.568;6.998;2022-09-12T01:59:59;29.20;;;15.53;;
3141;SDS011;1581;51.568;6.998;2022-09-12T02:02:35;26.63;;;14.43;;
3141;SDS011;1581;51.568;6.998;2022-09-12T02:05:08;19.80;;;14.17;;
3141;SDS011;1581;51.568;6.998;2022-09-12T02:07:42;21.47;;;13.30;;
3141;SDS011;1581;51.568;6.998;2022-09-12T02:10:15;24.13;;;14.20;;
3141;SDS011;1581;51.568;6.998;2022-09-12T02:12:46;22.90;;;14.30;;
3141;SDS011;1581;51.568;6.998;2022-09-12T02:15:18;25.53;;;14.60;;
3141;SDS011;1581;51.568;6.998;2022-09-12T02:17:57;20.97;;;13.17;;
3141;SDS011;1581;51.568;6.998;2022-09-12T02:20:28;24.20;;;13.90;;
3141;SDS011;1581;51.568;6.998;2022-09-12T02:23:00;22.10;;;13.43;;
3141;SDS011;1581;51.568;6.998;2022-09-12T02:25:33;22.83;;;14.33;;
3141;SDS011;1581;51.568;6.998;2022-09-12T02:28:08;26.83;;;14.57;;
3141;SDS011;1581;51.568;6.998;2022-09-12T02:30:42;20.57;;;13.03;;
3141;SDS011;1581;51.568;6.998;2022-09-12T02:33:18;23.30;;;13.93;;
3141;SDS011;1581;51.568;6.998;2022-09-12T02:35:52;25.43;;;14.10;;
3141;SDS011;1581;51.568;6.998;2022-09-12T02:38:29;23.97;;;14.40;;
3141;SDS011;1581;51.568;6.998;2022-09-12T02:41:06;25.57;;;13.03;;
3141;SDS011;1581;51.568;6.998;2022-09-12T02:43:34;28.70;;;13.80;;
3141;SDS011;1581;51.568;6.998;2022-09-12T02:46:04;25.50;;;14.23;;
3141;SDS011;1581;51.568;6.998;2022-09-12T02:48:36;20.97;;;13.97;;
3141;SDS011;1581;51.568;6.998;2022-09-12T02:51:08;26.97;;;13.03;;
3141;SDS011;1581;51.568;6.998;2022-09-12T02:53:37;23.67;;;13.07;;
3141;SDS011;1581;51.568;6.998;2022-09-12T02:56:06;20.97;;;13.30;;
3141;SDS011;1581;51.568;6.998;2022-09-12T02:58:41;20.90;;;13.73;;
3141;SDS011;1581;51.568;6.998;2022-09-12T03:01:10;24.77;;;14.50;;
3141;SDS011;1581;51.568;6.998;2022-09-12T03:03:53;23.80;;;13.63;;
3141;SDS011;1581;51.568;6.998;2022-09-12T03:06:49;25.00;;;13.67;;
3141;SDS011;1581;51.568;6.998;2022-09-12T03:09:29;23.77;;;14.20;;
3141;SDS011;1581;51.568;6.998;2022-09-12T03:12:09;30.63;;;13.40;;
3141;SDS011;1581;51.568;6.998;2022-09-12T03:15:01;23.90;;;13.80;;
3141;SDS011;1581;51.568;6.998;2022-09-12T03:17:42;23.33;;;13.60;;
3141;SDS011;1581;51.568;6.998;2022-09-12T03:20:30;22.10;;;13.40;;
3141;SDS011;1581;51.568;6.998;2022-09-12T03:23:11;20.33;;;12.47;;
3141;SDS011;1581;51.568;6.998;2022-09-12T03:25:50;24.90;;;13.43;;
3141;SDS011;1581;51.568;6.998;2022-09-12T03:28:24;21.50;;;13.17;;
3141;SDS011;1581;51.568;6.998;2022-09-12T03:30:52;24.13;;;12.67;;
3141;SDS011;1581;51.568;6.998;2022-09-12T03:33:21;22.10;;;12.63;;
3141;SDS011;1581;51.568;6.998;2022-09-12T03:35:52;31.00;;;13.10;;
3141;SDS011;1581;51.568;6.998;2022-09-12T03:38:20;21.10;;;13.17;;
3141;SDS011;1581;51.568;6.998;2022-09-12T03:40:48;22.10;;;12.67;;
3141;SDS011;1581;51.568;6.998;2022-09-12T03:43:15;23.50;;;12.50;;
3141;SDS011;1581;51.568;6.998;2022-09-12T03:45:43;23.23;;;13.00;;
3141;SDS011;1581;51.568;6.998;2022-09-12T03:48:15;19.63;;;11.10;;
3141;SDS011;1581;51.568;6.998;2022-09-12T03:50:42;21.90;;;12.90;;
3141;SDS011;1581;51.568;6.998;2022-09-12T03:53:11;25.73;;;13.93;;
3141;SDS011;1581;51.568;6.998;2022-09-12T03:55:39;23.80;;;12.77;;
3141;SDS011;1581;51.568;6.998;2022-09-12T03:58:06;21.17;;;13.13;;
3141;SDS011;1581;51.568;6.998;2022-09-12T04:00:34;24.23;;;14.40;;
3141;SDS011;1581;51.568;6.998;2022-09-12T04:03:01;23.30;;;13.13;;
3141;SDS011;1581;51.568;6.998;2022-09-12T04:05:29;23.23;;;12.87;;
3141;SDS011;1581;51.568;6.998;2022-09-12T04:07:56;24.73;;;14.30;;
3141;SDS011;1581;51.568;6.998;2022-09-12T04:10:25;21.97;;;13.17;;
3141;SDS011;1581;51.568;6.998;2022-09-12T04:12:53;23.17;;;13.07;;
3141;SDS011;1581;51.568;6.998;2022-09-12T04:15:20;19.70;;;13.03;;
3141;SDS011;1581;51.568;6.998;2022-09-12T04:17:48;20.60;;;13.13;;
3141;SDS011;1581;51.568;6.998;2022-09-12T04:20:15;23.20;;;11.97;;
3141;SDS011;1581;51.568;6.998;2022-09-12T04:22:43;20.33;;;13.13;;
3141;SDS011;1581;51.568;6.998;2022-09-12T04:25:10;27.30;;;13.63;;
3141;SDS011;1581;51.568;6.998;2022-09-12T04:27:40;27.73;;;13.70;;
3141;SDS011;1581;51.568;6.998;2022-09-12T04:30:08;24.13;;;13.63;;
3141;SDS011;1581;51.568;6.998;2022-09-12T04:32:36;20.60;;;13.10;;
3141;SDS011;1581;51.568;6.998;2022-09-12T04:35:05;18.33;;;12.40;;
3141;SDS011;1581;51.568;6.998;2022-09-12T04:37:33;21.70;;;13.57;;
3141;SDS011;1581;51.568;6.998;2022-09-12T04:40:01;25.07;;;14.37;;
3141;SDS011;1581;51.568;6.998;2022-09-12T04:42:29;24.97;;;13.17;;
3141;SDS011;1581;51.568;6.998;2022-09-12T04:44:58;23.60;;;12.10;;
3141;SDS011;1581;51.568;6.998;2022-09-12T04:47:25;31.90;;;12.57;;
3141;SDS011;1581;51.568;6.998;2022-09-12T04:49:53;27.13;;;12.43;;
3141;SDS011;1581;51.568;6.998;2022-09-12T04:52:21;20.60;;;12.70;;
3141;SDS011;1581;51.568;6.998;2022-09-12T04:54:48;20.53;;;10.70;;
3141;SDS011;1581;51.568;6.998;2022-09-12T04:57:17;21.90;;;11.83;;
3141;SDS011;1581;51.568;6.998;2022-09-12T04:59:45;17.50;;;11.07;;
3141;SDS011;1581;51.568;6.998;2022-09-12T05:02:13;29.73;;;12.20;;
3141;SDS011;1581;51.568;6.998;2022-09-12T05:04:41;17.57;;;10.53;;
3141;SDS011;1581;51.568;6.998;2022-09-12T05:07:11;18.10;;;11.70;;
3141;SDS011;1581;51.568;6.998;2022-09-12T05:09:38;19.37;;;12.40;;
3141;SDS011;1581;51.568;6.998;2022-09-12T05:12:06;19.00;;;12.37;;
3141;SDS011;1581;51.568;6.998;2022-09-12T05:14:33;19.70;;;11.63;;
3141;SDS011;1581;51.568;6.998;2022-09-12T05:17:02;19.73;;;12.30;;
3141;SDS011;1581;51.568;6.998;2022-09-12T05:19:32;19.83;;;11.50;;
3141;SDS011;1581;51.568;6.998;2022-09-12T05:21:59;20.83;;;12.40;;
3141;SDS011;1581;51.568;6.998;2022-09-12T05:24:29;20.10;;;12.57;;
3141;SDS011;1581;51.568;6.998;2022-09-12T05:26:57;17.37;;;10.90;;
3141;SDS011;1581;51.568;6.998;2022-09-12T05:29:25;23.07;;;13.53;;
3141;SDS011;1581;51.568;6.998;2022-09-12T05:31:55;22.87;;;12.33;;
3141;SDS011;1581;51.568;6.998;2022-09-12T05:34:23;18.10;;;10.80;;
3141;SDS011;1581;51.568;6.998;2022-09-12T05:36:53;22.03;;;11.40;;
3141;SDS011;1581;51.568;6.998;2022-09-12T05:39:21;20.23;;;11.57;;
3141;SDS011;1581;51.568;6.998;2022-09-12T05:41:49;23.70;;;12.70;;
3141;SDS011;1581;51.568;6.998;2022-09-12T05:44:20;18.67;;;12.63;;
3141;SDS011;1581;51.568;6.998;2022-09-12T05:46:49;36.07;;;11.93;;
3141;SDS011;1581;51.568;6.998;2022-09-12T05:49:17;19.73;;;11.67;;
3141;SDS011;1581;51.568;6.998;2022-09-12T05:51:45;22.83;;;11.67;;
3141;SDS011;1581;51.568;6.998;2022-09-12T05:54:15;22.13;;;12.97;;
3141;SDS011;1581;51.568;6.998;2022-09-12T05:56:45;17.33;;;10.90;;
3141;SDS011;1581;51.568;6.998;2022-09-12T05:59:17;20.53;;;12.40;;
3141;SDS011;1581;51.568;6.998;2022-09-12T06:01:48;21.27;;;13.50;;
3141;SDS011;1581;51.568;6.998;2022-09-12T06:04:16;20.83;;;13.73;;
3141;SDS011;1581;51.568;6.998;2022-09-12T06:06:47;25.30;;;12.50;;
3141;SDS011;1581;51.568;6.998;2022-09-12T06:09:16;24.97;;;12.00;;
3141;SDS011;1581;51.568;6.998;2022-09-12T06:11:44;19.73;;;11.77;;
3141;SDS011;1581;51.568;6.998;2022-09-12T06:14:13;23.80;;;11.90;;
3141;SDS011;1581;51.568;6.998;2022-09-12T06:16:42;21.70;;;11.00;;
3141;SDS011;1581;51.568;6.998;2022-09-12T06:19:12;23.70;;;12.03;;
3141;SDS011;1581;51.568;6.998;2022-09-12T06:21:42;18.27;;;11.00;;
3141;SDS011;1581;51.568;6.998;2022-09-12T06:24:10;17.00;;;12.00;;
3141;SDS011;1581;51.568;6.998;2022-09-12T06:26:39;19.17;;;10.67;;
3141;SDS011;1581;51.568;6.998;2022-09-12T06:29:08;24.40;;;12.00;;
3141;SDS011;1581;51.568;6.998;2022-09-12T06:31:37;21.37;;;12.17;;
3141;SDS011;1581;51.568;6.998;2022-09-12T06:34:07;24.03;;;11.17;;
3141;SDS011;1581;51.568;6.998;2022-09-12T06:36:36;20.53;;;11.90;;
3141;SDS011;1581;51.568;6.998;2022-09-12T06:39:07;17.03;;;11.90;;
3141;SDS011;1581;51.568;6.998;2022-09-12T06:41:37;16.80;;;11.00;;
3141;SDS011;1581;51.568;6.998;2022-09-12T06:44:06;26.40;;;11.77;;
3141;SDS011;1581;51.568;6.998;2022-09-12T06:46:36;18.53;;;10.50;;
3141;SDS011;1581;51.568;6.998;2022-09-12T06:49:03;16.87;;;10.43;;
3141;SDS011;1581;51.568;6.998;2022-09-12T06:51:32;17.70;;;11.57;;
3141;SDS011;1581;51.568;6.998;2022-09-12T06:54:00;21.23;;;11.40;;
3141;SDS011;1581;51.568;6.998;2022-09-12T06:56:29;19.73;;;11.93;;
3141;SDS011;1581;51.568;6.998;2022-09-12T06:58:58;14.37;;;10.70;;
3141;SDS011;1581;51.568;6.998;2022-09-12T07:01:27;20.47;;;12.07;;
3141;SDS011;1581;51.568;6.998;2022-09-12T07:03:56;22.00;;;12.20;;
3141;SDS011;1581;51.568;6.998;2022-09-12T07:06:26;18.33;;;11.07;;
3141;SDS011;1581;51.568;6.998;2022-09-12T07:08:57;24.57;;;11.50;;
3141;SDS011;1581;51.568;6.998;2022-09-12T07:11:26;16.67;;;11.43;;
3141;SDS011;1581;51.568;6.998;2022-09-12T07:13:59;17.37;;;11.70;;
3141;SDS011;1581;51.568;6.998;2022-09-12T07:16:28;17.87;;;12.03;;
3141;SDS011;1581;51.568;6.998;2022-09-12T07:18:57;14.47;;;10.37;;
3141;SDS011;1581;51.568;6.998;2022-09-12T07:21:27;22.10;;;11.57;;
3141;SDS011;1581;51.568;6.998;2022-09-12T07:23:55;17.13;;;11.20;;
3141;SDS011;1581;51.568;6.998;2022-09-12T07:26:24;23.33;;;11.83;;
3141;SDS011;1581;51.568;6.998;2022-09-12T07:28:53;21.23;;;11.17;;
3141;SDS011;1581;51.568;6.998;2022-09-12T07:31:25;20.77;;;10.50;;
3141;SDS011;1581;51.568;6.998;2022-09-12T07:33:53;16.80;;;10.87;;
3141;SDS011;1581;51.568;6.998;2022-09-12T07:36:22;18.90;;;11.60;;
3141;SDS011;1581;51.568;6.998;2022-09-12T07:38:53;18.13;;;12.30;;
3141;SDS011;1581;51.568;6.998;2022-09-12T07:41:23;17.40;;;10.30;;
3141;SDS011;1581;51.568;6.998;2022-09-12T07:43:52;19.80;;;11.53;;
3141;SDS011;1581;51.568;6.998;2022-09-12T07:46:21;30.98;;;11.90;;
3141;SDS011;1581;51.568;6.998;2022-09-12T07:48:50;14.73;;;10.27;;
3141;SDS011;1581;51.568;6.998;2022-09-12T07:51:19;16.77;;;10.17;;
3141;SDS011;1581;51.568;6.998;2022-09-12T07:53:48;15.00;;;10.85;;
3141;SDS011;1581;51.568;6.998;2022-09-12T07:56:16;17.65;;;10.35;;
3141;SDS011;1581;51.568;6.998;2022-09-12T07:58:45;14.40;;;10.48;;
3141;SDS011;1581;51.568;6.998;2022-09-12T08:01:14;15.82;;;9.82;;
3141;SDS011;1581;51.568;6.998;2022-09-12T08:03:45;17.17;;;10.73;;
3141;SDS011;1581;51.568;6.998;2022-09-12T08:06:17;21.05;;;10.82;;
3141;SDS011;1581;51.568;6.998;2022-09-12T08:08:48;20.48;;;11.40;;
3141;SDS011;1581;51.568;6.998;2022-09-12T08:11:18;20.70;;;11.43;;
3141;SDS011;1581;51.568;6.998;2022-09-12T08:13:47;16.00;;;10.48;;
3141;SDS011;1581;51.568;6.998;2022-09-12T08:16:17;16.37;;;10.83;;
3141;SDS011;1581;51.568;6.998;2022-09-12T08:18:46;18.23;;;12.07;;
3141;SDS011;1581;51.568;6.998;2022-09-12T08:21:15;25.10;;;12.07;;
3141;SDS011;1581;51.568;6.998;2022-09-12T08:23:46;15.63;;;11.50;;
3141;SDS011;1581;51.568;6.998;2022-09-12T08:26:17;27.80;;;11.25;;
3141;SDS011;1581;51.568;6.998;2022-09-12T08:28:44;18.17;;;11.40;;
3141;SDS011;1581;51.568;6.998;2022-09-12T08:31:13;14.63;;;11.50;;
3141;SDS011;1581;51.568;6.998;2022-09-12T08:33:44;19.05;;;10.70;;
3141;SDS011;1581;51.568;6.998;2022-09-12T08:36:12;23.00;;;11.75;;
3141;SDS011;1581;51.568;6.998;2022-09-12T08:38:43;27.63;;;12.60;;
3141;SDS011;1581;51.568;6.998;2022-09-12T08:41:14;17.38;;;11.25;;
3141;SDS011;1581;51.568;6.998;2022-09-12T08:47:10;17.58;;;12.32;;
3141;SDS011;1581;51.568;6.998;2022-09-12T08:49:51;22.48;;;12.88;;
3141;SDS011;1581;51.568;6.998;2022-09-12T08:52:28;19.75;;;11.63;;
3141;SDS011;1581;51.568;6.998;2022-09-12T08:55:05;21.40;;;11.48;;
3141;SDS011;1581;51.568;6.998;2022-09-12T08:57:52;24.08;;;12.60;;
3141;SDS011;1581;51.568;6.998;2022-09-12T09:00:20;16.60;;;11.55;;
3141;SDS011;1581;51.568;6.998;2022-09-12T09:05:59;18.90;;;12.18;;
3141;SDS011;1581;51.568;6.998;2022-09-12T09:08:43;24.55;;;12.18;;
3141;SDS011;1581;51.568;6.998;2022-09-12T09:11:30;18.92;;;12.18;;
3141;SDS011;1581;51.568;6.998;2022-09-12T09:14:17;25.25;;;11.20;;
3141;SDS011;1581;51.568;6.998;2022-09-12T09:17:16;18.10;;;11.98;;
3141;SDS011;1581;51.568;6.998;2022-09-12T09:19:52;18.50;;;12.07;;
3141;SDS011;1581;51.568;6.998;2022-09-12T09:22:34;21.25;;;12.02;;
3141;SDS011;1581;51.568;6.998;2022-09-12T09:25:16;21.90;;;12.45;;
3141;SDS011;1581;51.568;6.998;2022-09-12T09:27:52;17.25;;;11.45;;
3141;SDS011;1581;51.568;6.998;2022-09-12T09:30:26;16.88;;;10.68;;
3141;SDS011;1581;51.568;6.998;2022-09-12T09:32:54;17.52;;;11.32;;
3141;SDS011;1581;51.568;6.998;2022-09-12T09:35:27;21.38;;;11.30;;
3141;SDS011;1581;51.568;6.998;2022-09-12T09:38:09;15.30;;;10.00;;
3141;SDS011;1581;51.568;6.998;2022-09-12T09:40:52;17.00;;;10.35;;
3141;SDS011;1581;51.568;6.998;2022-09-12T09:44:05;14.48;;;9.93;;
3141;SDS011;1581;51.568;6.998;2022-09-12T09:46:33;12.18;;;9.45;;
3141;SDS011;1581;51.568;6.998;2022-09-12T09:49:00;16.67;;;10.43;;
3141;SDS011;1581;51.568;6.998;2022-09-12T09:51:32;21.45;;;10.30;;
3141;SDS011;1581;51.568;6.998;2022-09-12T09:54:02;13.57;;;9.48;;
3141;SDS011;1581;51.568;6.998;2022-09-12T09:56:41;15.45;;;9.48;;
3141;SDS011;1581;51.568;6.998;2022-09-12T09:59:11;16.45;;;10.00;;
3141;SDS011;1581;51.568;6.998;2022-09-12T10:01:42;14.35;;;9.43;;
3141;SDS011;1581;51.568;6.998;2022-09-12T10:04:17;15.70;;;8.80;;
3141;SDS011;1581;51.568;6.998;2022-09-12T10:06:46;11.93;;;7.65;;
3141;SDS011;1581;51.568;6.998;2022-09-12T10:09:19;13.32;;;7.40;;
3141;SDS011;1581;51.568;6.998;2022-09-12T10:11:51;11.30;;;8.07;;
3141;SDS011;1581;51.568;6.998;2022-09-12T10:17:23;13.40;;;7.93;;
3141;SDS011;1581;51.568;6.998;2022-09-12T10:19:53;8.18;;;6.68;;
3141;SDS011;1581;51.568;6.998;2022-09-12T10:22:23;6.65;;;5.65;;
3141;SDS011;1581;51.568;6.998;2022-09-12T10:24:53;13.60;;;5.47;;
3141;SDS011;1581;51.568;6.998;2022-09-12T10:27:24;10.48;;;6.47;;
3141;SDS011;1581;51.568;6.998;2022-09-12T10:30:01;8.65;;;6.25;;
3141;SDS011;1581;51.568;6.998;2022-09-12T10:32:33;7.05;;;5.28;;
3141;SDS011;1581;51.568;6.998;2022-09-12T10:35:06;8.52;;;4.90;;
3141;SDS011;1581;51.568;6.998;2022-09-12T10:37:48;6.47;;;4.82;;
3141;SDS011;1581;51.568;6.998;2022-09-12T10:40:20;6.13;;;4.55;;
3141;SDS011;1581;51.568;6.998;2022-09-12T10:42:51;6.32;;;4.72;;
3141;SDS011;1581;51.568;6.998;2022-09-12T10:45:22;6.05;;;4.15;;
3141;SDS011;1581;51.568;6.998;2022-09-12T10:47:54;4.50;;;4.10;;
3141;SDS011;1581;51.568;6.998;2022-09-12T10:50:30;4.10;;;3.70;;
3141;SDS011;1581;51.568;6.998;2022-09-12T10:53:12;2.78;;;2.55;;
3141;SDS011;1581;51.568;6.998;2022-09-12T10:55:57;3.95;;;3.20;;
3141;SDS011;1581;51.568;6.998;2022-09-12T10:58:46;3.60;;;2.80;;
3141;SDS011;1581;51.568;6.998;2022-09-12T11:01:35;2.88;;;2.67;;
3141;SDS011;1581;51.568;6.998;2022-09-12T11:07:17;5.25;;;2.92;;
3141;SDS011;1581;51.568;6.998;2022-09-12T11:10:04;4.97;;;3.22;;
3141;SDS011;1581;51.568;6.998;2022-09-12T11:12:53;3.60;;;3.38;;
3141;SDS011;1581;51.568;6.998;2022-09-12T11:15:39;2.72;;;2.53;;
3141;SDS011;1581;51.568;6.998;2022-09-12T11:18:34;4.30;;;2.97;;
3141;SDS011;1581;51.568;6.998;2022-09-12T11:21:39;2.50;;;2.40;;
3141;SDS011;1581;51.568;6.998;2022-09-12T11:24:23;3.60;;;2.45;;
3141;SDS011;1581;51.568;6.998;2022-09-12T11:27:41;8.27;;;2.90;;
3141;SDS011;1581;51.568;6.998;2022-09-12T11:30:35;3.95;;;3.20;;
3141;SDS011;1581;51.568;6.998;2022-09-12T11:33:18;3.25;;;2.60;;
3141;SDS011;1581;51.568;6.998;2022-09-12T11:36:04;3.17;;;2.67;;
3141;SDS011;1581;51.568;6.998;2022-09-12T11:38:51;5.90;;;2.50;;
3141;SDS011;1581;51.568;6.998;2022-09-12T11:41:39;2.78;;;2.58;;
3141;SDS011;1581;51.568;6.998;2022-09-12T11:44:11;2.80;;;2.60;;
3141;SDS011;1581;51.568;6.998;2022-09-12T11:46:44;4.20;;;2.22;;
3141;SDS011;1581;51.568;6.998;2022-09-12T11:49:16;3.95;;;2.58;;
3141;SDS011;1581;51.568;6.998;2022-09-12T11:51:54;2.60;;;2.33;;
3141;SDS011;1581;51.568;6.998;2022-09-12T11:54:29;2.60;;;2.20;;
3141;SDS011;1581;51.568;6.998;2022-09-12T11:57:05;5.10;;;2.47;;
3141;SDS011;1581;51.568;6.998;2022-09-12T11:59:42;2.22;;;2.03;;
3141;SDS011;1581;51.568;6.998;2022-09-12T12:02:18;2.00;;;1.90;;
3141;SDS011;1581;51.568;6.998;2022-09-12T12:04:58;14.27;;;2.22;;
3141;SDS011;1581;51.568;6.998;2022-09-12T12:07:44;2.30;;;2.10;;
3141;SDS011;1581;51.568;6.998;2022-09-12T12:10:22;2.42;;;2.22;;
3141;SDS011;1581;51.568;6.998;2022-09-12T12:12:58;3.33;;;2.00;;
3141;SDS011;1581;51.568;6.998;2022-09-12T12:15:29;2.20;;;2.10;;
3141;SDS011;1581;51.568;6.998;2022-09-12T12:18:01;2.65;;;2.17;;
3141;SDS011;1581;51.568;6.998;2022-09-12T12:20:31;2.65;;;2.45;;
3141;SDS011;1581;51.568;6.998;2022-09-12T12:23:02;2.35;;;1.90;;
3141;SDS011;1581;51.568;6.998;2022-09-12T12:25:38;3.20;;;1.67;;
3141;SDS011;1581;51.568;6.998;2022-09-12T12:31:24;1.80;;;1.70;;
3141;SDS011;1581;51.568;6.998;2022-09-12T12:36:52;2.53;;;2.00;;
3141;SDS011;1581;51.568;6.998;2022-09-12T12:46:00;3.22;;;2.03;;
3141;SDS011;1581;51.568;6.998;2022-09-12T12:51:36;1.88;;;1.77;;
3141;SDS011;1581;51.568;6.998;2022-09-12T12:54:26;1.73;;;1.63;;
3141;SDS011;1581;51.568;6.998;2022-09-12T13:00:27;2.20;;;2.03;;
3141;SDS011;1581;51.568;6.998;2022-09-12T13:03:00;1.52;;;1.48;;
3141;SDS011;1581;51.568;6.998;2022-09-12T13:05:39;2.40;;;2.30;;
3141;SDS011;1581;51.568;6.998;2022-09-12T13:08:10;2.25;;;2.05;;
3141;SDS011;1581;51.568;6.998;2022-09-12T13:10:58;2.25;;;1.77;;
3141;SDS011;1581;51.568;6.998;2022-09-12T13:13:32;2.10;;;1.98;;
3141;SDS011;1581;51.568;6.998;2022-09-12T13:16:04;2.47;;;2.28;;
3141;SDS011;1581;51.568;6.998;2022-09-12T13:18:38;1.85;;;1.75;;
3141;SDS011;1581;51.568;6.998;2022-09-12T13:21:11;2.05;;;1.80;;
3141;SDS011;1581;51.568;6.998;2022-09-12T13:23:41;1.52;;;1.45;;
3141;SDS011;1581;51.568;6.998;2022-09-12T13:26:10;2.88;;;1.92;;
3141;SDS011;1581;51.568;6.998;2022-09-12T13:28:47;1.55;;;1.45;;
3141;SDS011;1581;51.568;6.998;2022-09-12T13:31:16;2.00;;;1.80;;
3141;SDS011;1581;51.568;6.998;2022-09-12T13:33:49;6.20;;;1.95;;
3141;SDS011;1581;51.568;6.998;2022-09-12T13:36:22;1.88;;;1.63;;
3141;SDS011;1581;51.568;6.998;2022-09-12T13:39:19;3.13;;;1.40;;
3141;SDS011;1581;51.568;6.998;2022-09-12T13:45:05;5.63;;;1.48;;
3141;SDS011;1581;51.568;6.998;2022-09-12T13:47:41;2.75;;;1.92;;
3141;SDS011;1581;51.568;6.998;2022-09-12T13:50:13;4.85;;;1.75;;
3141;SDS011;1581;51.568;6.998;2022-09-12T13:52:48;2.10;;;1.75;;
3141;SDS011;1581;51.568;6.998;2022-09-12T13:55:24;1.83;;;1.73;;
3141;SDS011;1581;51.568;6.998;2022-09-12T13:57:57;3.20;;;2.03;;
3141;SDS011;1581;51.568;6.998;2022-09-12T14:00:29;1.40;;;1.30;;
3141;SDS011;1581;51.568;6.998;2022-09-12T14:02:59;2.10;;;1.80;;
3141;SDS011;1581;51.568;6.998;2022-09-12T14:05:45;2.38;;;1.83;;
3141;SDS011;1581;51.568;6.998;2022-09-12T14:08:22;2.00;;;1.90;;
3141;SDS011;1581;51.568;6.998;2022-09-12T14:10:50;2.58;;;1.70;;
3141;SDS011;1581;51.568;6.998;2022-09-12T14:13:19;1.92;;;1.05;;
3141;SDS011;1581;51.568;6.998;2022-09-12T14:15:52;3.00;;;1.85;;
3141;SDS011;1581;51.568;6.998;2022-09-12T14:18:22;2.72;;;1.70;;
3141;SDS011;1581;51.568;6.998;2022-09-12T14:20:52;1.65;;;1.55;;
3141;SDS011;1581;51.568;6.998;2022-09-12T14:23:24;2.45;;;2.25;;
3141;SDS011;1581;51.568;6.998;2022-09-12T14:25:55;2.13;;;2.03;;
3141;SDS011;1581;51.568;6.998;2022-09-12T14:28:25;1.40;;;1.40;;
3141;SDS011;1581;51.568;6.998;2022-09-12T14:31:00;2.10;;;2.00;;
3141;SDS011;1581;51.568;6.998;2022-09-12T14:33:31;1.42;;;1.38;;
3141;SDS011;1581;51.568;6.998;2022-09-12T14:36:16;1.70;;;1.60;;
3141;SDS011;1581;51.568;6.998;2022-09-12T14:38:49;1.50;;;1.40;;
3141;SDS011;1581;51.568;6.998;2022-09-12T14:41:21;1.85;;;1.42;;
3141;SDS011;1581;51.568;6.998;2022-09-12T14:43:53;1.90;;;1.70;;
3141;SDS011;1581;51.568;6.998;2022-09-12T14:46:27;1.80;;;1.70;;
3141;SDS011;1581;51.568;6.998;2022-09-12T14:48:59;1.60;;;1.60;;
3141;SDS011;1581;51.568;6.998;2022-09-12T14:51:33;1.55;;;1.45;;
3141;SDS011;1581;51.568;6.998;2022-09-12T14:54:03;4.85;;;1.92;;
3141;SDS011;1581;51.568;6.998;2022-09-12T14:56:38;2.08;;;1.98;;
3141;SDS011;1581;51.568;6.998;2022-09-12T14:59:25;1.92;;;1.83;;
3141;SDS011;1581;51.568;6.998;2022-09-12T15:07:44;2.25;;;1.60;;
3141;SDS011;1581;51.568;6.998;2022-09-12T15:10:20;2.00;;;1.90;;
3141;SDS011;1581;51.568;6.998;2022-09-12T15:15:51;32.00;;;4.00;;
3141;SDS011;1581;51.568;6.998;2022-09-12T15:18:23;1.50;;;1.40;;
3141;SDS011;1581;51.568;6.998;2022-09-12T15:20:53;2.00;;;1.90;;
3141;SDS011;1581;51.568;6.998;2022-09-12T15:23:26;10.80;;;2.28;;
3141;SDS011;1581;51.568;6.998;2022-09-12T15:26:00;13.13;;;2.70;;
3141;SDS011;1581;51.568;6.998;2022-09-12T15:28:28;2.10;;;1.85;;
3141;SDS011;1581;51.568;6.998;2022-09-12T15:30:59;3.30;;;1.90;;
3141;SDS011;1581;51.568;6.998;2022-09-12T15:33:34;2.05;;;1.95;;
3141;SDS011;1581;51.568;6.998;2022-09-12T15:36:02;1.70;;;1.70;;
3141;SDS011;1581;51.568;6.998;2022-09-12T15:38:36;2.05;;;1.85;;
3141;SDS011;1581;51.568;6.998;2022-09-12T15:41:07;3.42;;;2.25;;
3141;SDS011;1581;51.568;6.998;2022-09-12T15:43:37;1.83;;;1.67;;
3141;SDS011;1581;51.568;6.998;2022-09-12T15:46:04;1.73;;;1.63;;
3141;SDS011;1581;51.568;6.998;2022-09-12T15:48:32;1.55;;;1.40;;
3141;SDS011;1581;51.568;6.998;2022-09-12T15:51:01;1.92;;;1.65;;
3141;SDS011;1581;51.568;6.998;2022-09-12T15:53:29;1.52;;;1.50;;
3141;SDS011;1581;51.568;6.998;2022-09-12T15:55:57;2.00;;;1.90;;
3141;SDS011;1581;51.568;6.998;2022-09-12T15:58:24;3.55;;;1.58;;
3141;SDS011;1581;51.568;6.998;2022-09-12T16:00:52;3.28;;;1.77;;
3141;SDS011;1581;51.568;6.998;2022-09-12T16:03:21;1.58;;;1.48;;
3141;SDS011;1581;51.568;6.998;2022-09-12T16:05:54;1.88;;;1.77;;
3141;SDS011;1581;51.568;6.998;2022-09-12T16:08:24;2.78;;;1.75;;
3141;SDS011;1581;51.568;6.998;2022-09-12T16:10:53;2.20;;;2.08;;
3141;SDS011;1581;51.568;6.998;2022-09-12T16:13:23;2.65;;;2.45;;
3141;SDS011;1581;51.568;6.998;2022-09-12T16:15:51;3.22;;;1.98;;
3141;SDS011;1581;51.568;6.998;2022-09-12T16:18:22;3.28;;;1.60;;
3141;SDS011;1581;51.568;6.998;2022-09-12T16:20:51;4.63;;;2.17;;
3141;SDS011;1581;51.568;6.998;2022-09-12T16:23:20;2.45;;;2.33;;
3141;SDS011;1581;51.568;6.998;2022-09-12T16:25:56;1.50;;;1.40;;